Terminal Aerodrome Forecast
Issued by NWS

Home | Current Version | Previous Version | Text Only | Print | Product List | Glossary On
Versions: 1 2 3 4 5 6 7 8 9 10 11 12
000
FTUS42 TJSJ 041140
TAFIST
TAF
TIST 041140Z 0412/0512 07004KT P6SM FEW025
     FM041300 13010KT P6SM VCSH SCT025
     FM042300 VRB06KT P6SM FEW025=

USA.gov is the U.S. government's official web portal to all federal, state and local government web resources and services.